• Join FlightAware (Why Join?)
  • Login
  • US Flag 
10:32PM EDT


 

Airport Tracker/Info


-or-


 

Live Flight TrackerFlight Track Log ✈ N528QS ✈ 25-Jul-2013 ✈ KSAV - KATL

Flight Track Log - Related Links

Times and Time Zones

All times are in EDT time to prevent confusion due to time zone crossing. See the N528QS flight status page for this flight to view local times or setup timezone preferences in your user account.

Time Position Orientation Groundspeed Altitude Reporting Facility
EDT Latitude Longitude Course Direction KTS MPH feet Rate Location/Type
12:13PM 32.3000 -81.2556 287° West 242 278 8,800  Level Jacksonville Center
12:14PM 32.3219 -81.3461 286° West 247 284 12,200 2,640 Climbing Jacksonville Center
12:15PM 32.3381 -81.4739 279° West 329 379 14,100 2,160 Climbing Jacksonville Center
12:16PM 32.2828 -81.7868 288° West  Level FlightAware Approximate
12:16PM 32.3583 -81.5942 281° West 381 438 16,600  Level Jacksonville Center
12:17PM 32.3092 -81.8864 287° West  Level FlightAware Approximate
12:17PM 32.3803 -81.7217 282° West 399 459 19,200  Level Jacksonville Center
12:18PM 32.3342 -81.9865 287° West  Level FlightAware Approximate
12:19PM 32.4153 -81.9375 281° West 394 453 22,300  Level Atlanta Center
12:20PM 32.4386 -82.0750 281° West 415 478 23,000 300 Climbing Atlanta Center
12:21PM 32.4636 -82.2172 282° West 432 497 23,000  Level Atlanta Center
12:22PM 32.5136 -82.3467 295° West 432 497 23,000  Level Atlanta Center
12:23PM 32.5736 -82.4736 299° West 437 503 23,000  Level Atlanta Center
12:24PM 32.6356 -82.5983 301° West 437 503 23,000  Level Atlanta Center
12:25PM 32.6978 -82.7256 300° West 437 503 23,000  Level Atlanta Center
12:26PM 32.7594 -82.8483 301° West 442 509 23,000  Level Atlanta Center
12:27PM 32.8192 -82.9761 299° West 442 509 23,000 -180 Level Atlanta Center
12:28PM 32.8806 -83.1014 300° West 442 509 22,700 -1,140 Descending Atlanta Center
12:29PM 32.9378 -83.2269 299° West 442 509 20,800 -2,040 Descending Atlanta Center
12:30PM 33.0056 -83.3625 301° West 442 509 18,700 -1,800 Descending Atlanta Center
12:31PM 33.0497 -83.4564 299° West 428 493 17,200 -1,980 Descending Atlanta Center
12:32PM 33.1131 -83.5850 300° West 412 474 14,800 -2,400 Descending Atlanta Center
12:33PM 33.1739 -83.6914 304° West 401 461 12,500 -1,440 Descending Atlanta Center
12:34PM 33.2347 -83.8078 302° West 387 445 12,000 -300 Descending Atlanta Center
12:35PM 33.2806 -83.8947 302° West 351 404 12,000 -960 Level Atlanta Center
12:36PM 33.3225 -83.9742 302° West 303 349 10,100 -1,800 Descending Atlanta Center
12:37PM 33.3706 -84.0464 309° West 281 323 8,400 -1,620 Descending Atlanta Center
12:38PM 33.4289 -84.0861 330° Northwest 240 276 6,900 -1,200 Descending Atlanta Center
12:39PM 33.4644 -84.0289 53° Northeast 177 204 6,000 -480 Descending Atlanta Center
12:40PM 33.5083 -83.9764 45° Northeast 194 223 6,000 -300 Level Atlanta Center
12:41PM 33.5606 -83.9492 23° Northeast 206 237 5,400 -540 Descending Atlanta Center
12:42PM 33.6189 -83.9589 352° North 201 231 5,000 -180 Descending Atlanta Center
12:44PM 33.6500 -84.1000 285° West 198 228 5,000 -60 Level Atlanta TRACON
12:45PM 33.6500 -84.1667 270° West 194 223 4,900 -540 Descending Atlanta TRACON
12:46PM 33.6500 -84.2167 270° West 196 226 4,000 -1,020 Descending Atlanta TRACON
12:47PM 33.6500 -84.2833 270° West 195 224 3,000 -960 Descending Atlanta TRACON
12:48PM 33.6500 -84.3500 270° West 177 204 2,100 -900 Descending Atlanta TRACON
12:49PM 33.6500 -84.4000 270° West 149 171 1,200 -900 Descending Atlanta TRACON
12:51PM 33.6367 -84.4279 240° Southwest  Level Estimated